Have a Safe July 4th! 

Flight Track Log - Related Links

Times and Time Zones

All times are in EDT time to prevent confusion due to time zone crossing. See the BOE521 flight status page for this flight to view local times or setup timezone preferences in your user account.

Time Position Orientation Groundspeed Altitude Reporting Facility
EDT Latitude Longitude Course Direction KTS MPH feet Rate Location/Type
Thu 03:12:42 PM 47.2164 -119.3503 296° West 180 207 2,800  Level Seattle Center
Thu 03:13:43 PM 47.2522 -119.4569 298° West 255 293 4,900 3,393 Climbing Seattle Center
Thu 03:14:44 PM 47.2878 -119.5547 297° West 269 310 9,700 4,585 Climbing Seattle Center
Thu 03:15:46 PM 47.3231 -119.6572 298° West 279 321 14,300 4,098 Climbing Seattle Center
Thu 03:16:47 PM 47.3606 -119.7628 297° West 288 331 18,100 3,590 Climbing Seattle Center
Thu 03:17:48 PM 47.3986 -119.8714 297° West 296 341 21,600 1,272 Climbing Seattle Center
Thu 03:19:51 PM 47.4997 -120.1603 296° West 428 493 22,000 130 Climbing Seattle Center
Thu 03:20:52 PM 47.5475 -120.3083 290° West 402 463 22,000  Level Seattle Center
Thu 03:21:53 PM 47.5833 -120.4575 290° West 388 447 22,000  Level Seattle Center
Thu 03:22:55 PM 47.6208 -120.6089 290° West 391 450 22,000  Level Seattle Center
Thu 03:23:56 PM 47.6647 -120.7925 291° West 394 453 22,000  Level Seattle Center
Thu 03:24:57 PM 47.7008 -120.9347 291° West 394 453 22,000 -49 Level Seattle Center
Thu 03:25:58 PM 47.7389 -121.0853 290° West 395 455 21,900 -857 Descending Seattle Center
Thu 03:26:14 PM 47.7519 -121.1392 289° West 380 437 20,900 -2,710 Descending Seattle Center
Thu 03:27:00 PM 47.7711 -121.2222 292° West 357 411 19,100 -2,852 Descending Seattle Center
Thu 03:27:15 PM 47.7847 -121.2728 288° West 346 398 18,000 -2,754 Descending Seattle Center
Thu 03:28:01 PM 47.8019 -121.3519 293° West 338 389 16,300 -2,557 Descending Seattle Center
Thu 03:28:16 PM 47.8161 -121.4006 288° West 336 387 15,400 -2,656 Descending Seattle Center
Thu 03:29:02 PM 47.8381 -121.5019 290° West 328 377 13,600 -2,262 Descending Seattle Center
Thu 03:29:17 PM 47.8450 -121.5297 289° West 328 377 13,100 -1,967 Descending Seattle Center
Thu 03:30:03 PM 47.8672 -121.6253 265° West 322 371 11,600 -1,444 Descending Seattle Center
Thu 03:31:05 PM 47.8606 -121.7361 223° Southwest 297 342 10,500 -1,073 Descending Seattle Center
Thu 03:32:06 PM 47.8025 -121.8164 220° Southwest 283 326 9,400 -1,082 Descending Seattle Center
Thu 03:33:07 PM 47.7450 -121.8886 194° South 274 315 8,300 -1,512 Descending Seattle Center
Thu 03:34:09 PM 47.6703 -121.9169 198° South 274 315 6,300 -1,422 Descending Seattle Center
Thu 03:35:22 PM 47.5739 -121.9642 196° South 266 306 5,100 -590 Descending Seattle Center
Thu 03:36:11 PM 47.5322 -121.9822 198° South 259 298 5,100 -55 Level Seattle Center
Thu 03:37:12 PM 47.4583 -122.0169 198° South 235 270 5,000 -439 Descending Seattle Center
Thu 03:38:14 PM 47.3967 -122.0458 196° South 234 269 4,200 -390 Descending Seattle Center
Thu 03:39:15 PM 47.3453 -122.0681 241° Southwest 196 226 4,200 -443 Level Seattle Center
Thu 03:40:16 PM 47.3267 -122.1175 322° Northwest 175 201 3,300 -682 Descending Seattle Center
Thu 03:41:27 PM 47.3731 -122.1711 330° Northwest 163 188 2,700 -293 Descending Seattle Center
Thu 03:42:19 PM 47.3986 -122.1928 331° Northwest 154 177 2,700 -265 Level Seattle Center
Thu 03:43:20 PM 47.4308 -122.2194 330° Northwest 135 155 2,200 -689 Descending Seattle Center
Thu 03:44:21 PM 47.4658 -122.2497 330° Northwest 123 142 1,300 -787 Descending Seattle Center
Thu 03:45:22 PM 47.4947 -122.2742 331° Northwest 121 139 600 10,180 Descending Seattle Center
Thu 03:46:23 PM 47.5267 -122.3000 331° Northwest 122 140 22,000 21,049 Climbing Seattle Center

Login

Don't have an account? Register now (free) for customized features, flight alerts, and more!